sensor_id;sensor_type;location;lat;lon;timestamp;temperature;humidity
21662;DHT22;10992;48.170;8.596;2024-01-27T00:00:17;2.70;99.90
21662;DHT22;10992;48.170;8.596;2024-01-27T00:02:44;2.60;99.90
21662;DHT22;10992;48.170;8.596;2024-01-27T00:05:11;2.50;99.90
21662;DHT22;10992;48.170;8.596;2024-01-27T00:07:38;2.50;99.90
21662;DHT22;10992;48.170;8.596;2024-01-27T00:10:05;2.50;99.90
21662;DHT22;10992;48.170;8.596;2024-01-27T00:12:32;2.30;99.90
21662;DHT22;10992;48.170;8.596;2024-01-27T00:14:59;2.20;99.90
21662;DHT22;10992;48.170;8.596;2024-01-27T00:17:26;2.10;99.90
21662;DHT22;10992;48.170;8.596;2024-01-27T00:19:54;2.00;99.90
21662;DHT22;10992;48.170;8.596;2024-01-27T00:22:22;1.90;99.90
21662;DHT22;10992;48.170;8.596;2024-01-27T00:24:49;1.70;99.90
21662;DHT22;10992;48.170;8.596;2024-01-27T00:27:16;1.50;99.90
21662;DHT22;10992;48.170;8.596;2024-01-27T00:29:43;1.40;99.90
21662;DHT22;10992;48.170;8.596;2024-01-27T00:32:10;1.30;99.90
21662;DHT22;10992;48.170;8.596;2024-01-27T00:34:37;1.30;99.90
21662;DHT22;10992;48.170;8.596;2024-01-27T00:37:04;1.20;99.90
21662;DHT22;10992;48.170;8.596;2024-01-27T00:39:31;1.20;99.90
21662;DHT22;10992;48.170;8.596;2024-01-27T00:41:58;1.00;99.90
21662;DHT22;10992;48.170;8.596;2024-01-27T00:44:26;0.90;99.90
21662;DHT22;10992;48.170;8.596;2024-01-27T00:46:53;1.00;99.90
21662;DHT22;10992;48.170;8.596;2024-01-27T00:49:19;1.10;99.90
21662;DHT22;10992;48.170;8.596;2024-01-27T00:51:47;1.20;99.90
21662;DHT22;10992;48.170;8.596;2024-01-27T00:54:14;1.20;99.90
21662;DHT22;10992;48.170;8.596;2024-01-27T00:56:40;1.20;99.90
21662;DHT22;10992;48.170;8.596;2024-01-27T00:59:07;1.20;99.90
21662;DHT22;10992;48.170;8.596;2024-01-27T01:01:34;1.20;99.90
21662;DHT22;10992;48.170;8.596;2024-01-27T01:04:01;1.20;99.90
21662;DHT22;10992;48.170;8.596;2024-01-27T01:06:28;1.30;99.90
21662;DHT22;10992;48.170;8.596;2024-01-27T01:08:55;1.50;99.90
21662;DHT22;10992;48.170;8.596;2024-01-27T01:11:22;1.50;99.90
21662;DHT22;10992;48.170;8.596;2024-01-27T01:13:49;1.40;99.90
21662;DHT22;10992;48.170;8.596;2024-01-27T01:16:16;1.30;99.90
21662;DHT22;10992;48.170;8.596;2024-01-27T01:18:43;1.20;99.90
21662;DHT22;10992;48.170;8.596;2024-01-27T01:21:10;1.10;99.90
21662;DHT22;10992;48.170;8.596;2024-01-27T01:23:37;1.10;99.90
21662;DHT22;10992;48.170;8.596;2024-01-27T01:26:03;1.10;99.90
21662;DHT22;10992;48.170;8.596;2024-01-27T01:28:30;1.00;99.90
21662;DHT22;10992;48.170;8.596;2024-01-27T01:30:59;0.80;99.90
21662;DHT22;10992;48.170;8.596;2024-01-27T01:33:25;0.70;99.90
21662;DHT22;10992;48.170;8.596;2024-01-27T01:35:52;0.50;99.90
21662;DHT22;10992;48.170;8.596;2024-01-27T01:38:20;0.40;99.90
21662;DHT22;10992;48.170;8.596;2024-01-27T01:40:47;0.30;99.90
21662;DHT22;10992;48.170;8.596;2024-01-27T01:43:14;0.30;99.90
21662;DHT22;10992;48.170;8.596;2024-01-27T01:45:41;0.10;99.90
21662;DHT22;10992;48.170;8.596;2024-01-27T01:48:08;0.00;99.90
21662;DHT22;10992;48.170;8.596;2024-01-27T01:50:36;0.00;99.90
21662;DHT22;10992;48.170;8.596;2024-01-27T01:53:04;0.20;99.90
21662;DHT22;10992;48.170;8.596;2024-01-27T01:55:31;0.20;99.90
21662;DHT22;10992;48.170;8.596;2024-01-27T01:57:58;0.30;99.90
21662;DHT22;10992;48.170;8.596;2024-01-27T02:00:25;0.10;99.90
21662;DHT22;10992;48.170;8.596;2024-01-27T02:02:52;0.00;99.90
21662;DHT22;10992;48.170;8.596;2024-01-27T02:05:19;0.10;99.90
21662;DHT22;10992;48.170;8.596;2024-01-27T02:07:46;0.10;99.90
21662;DHT22;10992;48.170;8.596;2024-01-27T02:10:14;0.20;99.90
21662;DHT22;10992;48.170;8.596;2024-01-27T02:12:43;0.10;99.90
21662;DHT22;10992;48.170;8.596;2024-01-27T02:15:11;0.10;99.90
21662;DHT22;10992;48.170;8.596;2024-01-27T02:17:42;0.10;99.90
21662;DHT22;10992;48.170;8.596;2024-01-27T02:20:09;0.20;99.90
21662;DHT22;10992;48.170;8.596;2024-01-27T02:22:36;0.20;99.90
21662;DHT22;10992;48.170;8.596;2024-01-27T02:25:03;0.10;99.90
21662;DHT22;10992;48.170;8.596;2024-01-27T02:27:30;0.10;99.90
21662;DHT22;10992;48.170;8.596;2024-01-27T02:29:57;-0.10;99.90
21662;DHT22;10992;48.170;8.596;2024-01-27T02:32:24;-0.20;99.90
21662;DHT22;10992;48.170;8.596;2024-01-27T02:34:51;-0.30;99.90
21662;DHT22;10992;48.170;8.596;2024-01-27T02:37:18;-0.40;99.90
21662;DHT22;10992;48.170;8.596;2024-01-27T02:39:45;-0.40;99.90
21662;DHT22;10992;48.170;8.596;2024-01-27T02:42:12;-0.50;99.90
21662;DHT22;10992;48.170;8.596;2024-01-27T02:44:39;-0.50;99.90
21662;DHT22;10992;48.170;8.596;2024-01-27T02:47:06;-0.60;99.90
21662;DHT22;10992;48.170;8.596;2024-01-27T02:49:32;-0.70;99.90
21662;DHT22;10992;48.170;8.596;2024-01-27T02:52:00;-0.70;99.90
21662;DHT22;10992;48.170;8.596;2024-01-27T02:54:26;-0.80;99.90
21662;DHT22;10992;48.170;8.596;2024-01-27T02:56:54;-0.90;99.90
21662;DHT22;10992;48.170;8.596;2024-01-27T02:59:21;-1.00;99.90
21662;DHT22;10992;48.170;8.596;2024-01-27T03:01:47;-1.10;99.90
21662;DHT22;10992;48.170;8.596;2024-01-27T03:04:14;-1.20;99.90
21662;DHT22;10992;48.170;8.596;2024-01-27T03:06:41;-1.30;99.90
21662;DHT22;10992;48.170;8.596;2024-01-27T03:09:08;-1.20;99.90
21662;DHT22;10992;48.170;8.596;2024-01-27T03:11:37;-1.20;99.90
21662;DHT22;10992;48.170;8.596;2024-01-27T03:14:03;-1.20;99.90
21662;DHT22;10992;48.170;8.596;2024-01-27T03:16:31;-1.30;99.90
21662;DHT22;10992;48.170;8.596;2024-01-27T03:18:59;-1.40;99.90
21662;DHT22;10992;48.170;8.596;2024-01-27T03:21:26;-1.50;99.90
21662;DHT22;10992;48.170;8.596;2024-01-27T03:23:53;-1.60;99.90
21662;DHT22;10992;48.170;8.596;2024-01-27T03:26:20;-1.70;99.90
21662;DHT22;10992;48.170;8.596;2024-01-27T03:28:47;-1.50;99.90
21662;DHT22;10992;48.170;8.596;2024-01-27T03:31:14;-1.50;99.90
21662;DHT22;10992;48.170;8.596;2024-01-27T03:33:41;-1.60;99.90
21662;DHT22;10992;48.170;8.596;2024-01-27T03:36:13;-1.40;99.90
21662;DHT22;10992;48.170;8.596;2024-01-27T03:38:43;-1.20;99.90
21662;DHT22;10992;48.170;8.596;2024-01-27T03:41:10;-1.30;99.90
21662;DHT22;10992;48.170;8.596;2024-01-27T03:43:37;-1.40;99.90
21662;DHT22;10992;48.170;8.596;2024-01-27T03:46:04;-1.50;99.90
21662;DHT22;10992;48.170;8.596;2024-01-27T03:48:30;-1.50;99.90
21662;DHT22;10992;48.170;8.596;2024-01-27T03:50:57;-1.30;99.90
21662;DHT22;10992;48.170;8.596;2024-01-27T03:53:24;-1.40;99.90
21662;DHT22;10992;48.170;8.596;2024-01-27T03:55:51;-1.40;99.90
21662;DHT22;10992;48.170;8.596;2024-01-27T03:58:18;-1.30;99.90
21662;DHT22;10992;48.170;8.596;2024-01-27T04:00:45;-1.40;99.90
21662;DHT22;10992;48.170;8.596;2024-01-27T04:03:12;-1.50;99.90
21662;DHT22;10992;48.170;8.596;2024-01-27T04:05:39;-1.50;99.90
21662;DHT22;10992;48.170;8.596;2024-01-27T04:08:07;-1.40;99.90
21662;DHT22;10992;48.170;8.596;2024-01-27T04:10:33;-1.30;99.90
21662;DHT22;10992;48.170;8.596;2024-01-27T04:13:01;-1.50;99.90
21662;DHT22;10992;48.170;8.596;2024-01-27T04:15:28;-1.40;99.90
21662;DHT22;10992;48.170;8.596;2024-01-27T04:17:55;-1.50;99.90
21662;DHT22;10992;48.170;8.596;2024-01-27T04:20:22;-1.60;99.90
21662;DHT22;10992;48.170;8.596;2024-01-27T04:22:49;-1.70;99.90
21662;DHT22;10992;48.170;8.596;2024-01-27T04:25:16;-1.70;99.90
21662;DHT22;10992;48.170;8.596;2024-01-27T04:27:43;-1.80;99.90
21662;DHT22;10992;48.170;8.596;2024-01-27T04:30:11;-2.00;99.90
21662;DHT22;10992;48.170;8.596;2024-01-27T04:32:38;-2.10;99.90
21662;DHT22;10992;48.170;8.596;2024-01-27T04:35:09;-2.20;99.90
21662;DHT22;10992;48.170;8.596;2024-01-27T04:37:36;-2.10;99.90
21662;DHT22;10992;48.170;8.596;2024-01-27T04:40:05;-1.80;99.90
21662;DHT22;10992;48.170;8.596;2024-01-27T04:42:37;-1.80;99.90
21662;DHT22;10992;48.170;8.596;2024-01-27T04:45:07;-1.90;99.90
21662;DHT22;10992;48.170;8.596;2024-01-27T04:47:34;-2.00;99.90
21662;DHT22;10992;48.170;8.596;2024-01-27T04:50:01;-2.10;99.90
21662;DHT22;10992;48.170;8.596;2024-01-27T04:52:30;-2.10;99.90
21662;DHT22;10992;48.170;8.596;2024-01-27T04:54:57;-2.20;99.90
21662;DHT22;10992;48.170;8.596;2024-01-27T04:57:25;-2.30;99.90
21662;DHT22;10992;48.170;8.596;2024-01-27T04:59:52;-2.40;99.90
21662;DHT22;10992;48.170;8.596;2024-01-27T05:02:18;-2.40;99.90
21662;DHT22;10992;48.170;8.596;2024-01-27T05:04:45;-2.40;99.90
21662;DHT22;10992;48.170;8.596;2024-01-27T05:07:12;-2.40;99.90
21662;DHT22;10992;48.170;8.596;2024-01-27T05:09:39;-2.40;99.90
21662;DHT22;10992;48.170;8.596;2024-01-27T05:12:06;-2.40;99.90
21662;DHT22;10992;48.170;8.596;2024-01-27T05:14:33;-2.30;99.90
21662;DHT22;10992;48.170;8.596;2024-01-27T05:17:00;-2.20;99.90
21662;DHT22;10992;48.170;8.596;2024-01-27T05:19:27;-2.20;99.90
21662;DHT22;10992;48.170;8.596;2024-01-27T05:21:54;-2.30;99.90
21662;DHT22;10992;48.170;8.596;2024-01-27T05:24:21;-2.30;99.90
21662;DHT22;10992;48.170;8.596;2024-01-27T05:26:47;-2.30;99.90
21662;DHT22;10992;48.170;8.596;2024-01-27T05:29:14;-2.40;99.90
21662;DHT22;10992;48.170;8.596;2024-01-27T05:31:41;-2.30;99.90
21662;DHT22;10992;48.170;8.596;2024-01-27T05:34:10;-2.30;99.90
21662;DHT22;10992;48.170;8.596;2024-01-27T05:36:38;-2.00;99.90
21662;DHT22;10992;48.170;8.596;2024-01-27T05:39:04;-2.00;99.90
21662;DHT22;10992;48.170;8.596;2024-01-27T05:41:32;-2.10;99.90
21662;DHT22;10992;48.170;8.596;2024-01-27T05:43:59;-2.20;99.90
21662;DHT22;10992;48.170;8.596;2024-01-27T05:46:26;-2.30;99.90
21662;DHT22;10992;48.170;8.596;2024-01-27T05:48:53;-2.20;99.90
21662;DHT22;10992;48.170;8.596;2024-01-27T05:51:28;-2.20;99.90
21662;DHT22;10992;48.170;8.596;2024-01-27T05:53:56;-2.00;99.90
21662;DHT22;10992;48.170;8.596;2024-01-27T05:56:23;-1.90;99.90
21662;DHT22;10992;48.170;8.596;2024-01-27T05:58:50;-1.70;99.90
21662;DHT22;10992;48.170;8.596;2024-01-27T06:01:18;-1.70;99.90
21662;DHT22;10992;48.170;8.596;2024-01-27T06:03:46;-1.60;99.90
21662;DHT22;10992;48.170;8.596;2024-01-27T06:06:13;-1.60;99.90
21662;DHT22;10992;48.170;8.596;2024-01-27T06:08:41;-1.50;99.90
21662;DHT22;10992;48.170;8.596;2024-01-27T06:11:08;-1.50;99.90
21662;DHT22;10992;48.170;8.596;2024-01-27T06:13:36;-1.50;99.90
21662;DHT22;10992;48.170;8.596;2024-01-27T06:16:08;-1.50;99.90
21662;DHT22;10992;48.170;8.596;2024-01-27T06:18:38;-1.50;99.90
21662;DHT22;10992;48.170;8.596;2024-01-27T06:21:05;-1.50;99.90
21662;DHT22;10992;48.170;8.596;2024-01-27T06:23:33;-1.50;99.90
21662;DHT22;10992;48.170;8.596;2024-01-27T06:26:07;-1.50;99.90
21662;DHT22;10992;48.170;8.596;2024-01-27T06:28:35;-1.60;99.90
21662;DHT22;10992;48.170;8.596;2024-01-27T06:31:03;-1.60;99.90
21662;DHT22;10992;48.170;8.596;2024-01-27T06:33:31;-1.60;99.90
21662;DHT22;10992;48.170;8.596;2024-01-27T06:35:58;-1.60;99.90
21662;DHT22;10992;48.170;8.596;2024-01-27T06:38:27;-1.50;99.90
21662;DHT22;10992;48.170;8.596;2024-01-27T06:40:54;-1.40;99.90
21662;DHT22;10992;48.170;8.596;2024-01-27T06:43:21;-1.30;99.90
21662;DHT22;10992;48.170;8.596;2024-01-27T06:45:48;-1.30;99.90
21662;DHT22;10992;48.170;8.596;2024-01-27T06:48:14;-1.30;99.90
21662;DHT22;10992;48.170;8.596;2024-01-27T06:50:41;-1.10;99.90
21662;DHT22;10992;48.170;8.596;2024-01-27T06:53:09;-1.10;99.90
21662;DHT22;10992;48.170;8.596;2024-01-27T06:55:37;-1.10;99.90
21662;DHT22;10992;48.170;8.596;2024-01-27T06:58:09;-1.10;99.90
21662;DHT22;10992;48.170;8.596;2024-01-27T07:00:35;-1.00;99.90
21662;DHT22;10992;48.170;8.596;2024-01-27T07:03:03;-1.00;99.90
21662;DHT22;10992;48.170;8.596;2024-01-27T07:05:30;-0.90;99.90
21662;DHT22;10992;48.170;8.596;2024-01-27T07:07:59;-0.80;99.90
21662;DHT22;10992;48.170;8.596;2024-01-27T07:10:26;-0.80;99.90
21662;DHT22;10992;48.170;8.596;2024-01-27T07:12:53;-0.90;99.90
21662;DHT22;10992;48.170;8.596;2024-01-27T07:15:20;-0.90;99.90
21662;DHT22;10992;48.170;8.596;2024-01-27T07:17:48;-0.90;99.90
21662;DHT22;10992;48.170;8.596;2024-01-27T07:20:15;-0.90;99.90
21662;DHT22;10992;48.170;8.596;2024-01-27T07:22:42;-1.00;99.90
21662;DHT22;10992;48.170;8.596;2024-01-27T07:25:09;-1.10;99.90
21662;DHT22;10992;48.170;8.596;2024-01-27T07:27:36;-1.10;99.90
21662;DHT22;10992;48.170;8.596;2024-01-27T07:30:04;-1.20;99.90
21662;DHT22;10992;48.170;8.596;2024-01-27T07:32:32;-1.30;99.90
21662;DHT22;10992;48.170;8.596;2024-01-27T07:34:59;-1.20;99.90
21662;DHT22;10992;48.170;8.596;2024-01-27T07:37:26;-1.40;99.90
21662;DHT22;10992;48.170;8.596;2024-01-27T07:39:53;-1.40;99.90
21662;DHT22;10992;48.170;8.596;2024-01-27T07:42:20;-1.40;99.90
21662;DHT22;10992;48.170;8.596;2024-01-27T07:44:47;-1.60;99.90
21662;DHT22;10992;48.170;8.596;2024-01-27T07:47:16;-1.60;99.90
21662;DHT22;10992;48.170;8.596;2024-01-27T07:49:43;-1.30;99.90
21662;DHT22;10992;48.170;8.596;2024-01-27T07:52:11;-0.60;99.90
21662;DHT22;10992;48.170;8.596;2024-01-27T07:54:38;-0.40;99.90
21662;DHT22;10992;48.170;8.596;2024-01-27T07:57:07;-0.50;99.90
21662;DHT22;10992;48.170;8.596;2024-01-27T07:59:34;-0.60;99.90
21662;DHT22;10992;48.170;8.596;2024-01-27T08:02:01;-0.70;99.90
21662;DHT22;10992;48.170;8.596;2024-01-27T08:04:28;-0.90;99.90
21662;DHT22;10992;48.170;8.596;2024-01-27T08:06:55;-0.90;99.90
21662;DHT22;10992;48.170;8.596;2024-01-27T08:09:22;-0.90;99.90
21662;DHT22;10992;48.170;8.596;2024-01-27T08:11:50;-0.90;99.90
21662;DHT22;10992;48.170;8.596;2024-01-27T08:14:20;-0.90;99.90
21662;DHT22;10992;48.170;8.596;2024-01-27T08:16:47;-0.90;99.90
21662;DHT22;10992;48.170;8.596;2024-01-27T08:19:15;-0.80;99.90
21662;DHT22;10992;48.170;8.596;2024-01-27T08:21:48;-0.80;99.90
21662;DHT22;10992;48.170;8.596;2024-01-27T08:24:14;-0.70;99.90
21662;DHT22;10992;48.170;8.596;2024-01-27T08:26:42;-0.70;99.90
21662;DHT22;10992;48.170;8.596;2024-01-27T08:29:09;-0.60;99.90
21662;DHT22;10992;48.170;8.596;2024-01-27T08:31:36;-0.40;99.90
21662;DHT22;10992;48.170;8.596;2024-01-27T08:34:06;-0.50;99.90
21662;DHT22;10992;48.170;8.596;2024-01-27T08:36:34;-0.60;99.90
21662;DHT22;10992;48.170;8.596;2024-01-27T08:39:01;-0.60;99.90
21662;DHT22;10992;48.170;8.596;2024-01-27T08:41:28;-0.40;99.90
21662;DHT22;10992;48.170;8.596;2024-01-27T08:43:55;-0.30;99.90
21662;DHT22;10992;48.170;8.596;2024-01-27T08:46:22;0.00;99.90
21662;DHT22;10992;48.170;8.596;2024-01-27T08:48:49;0.00;99.90
21662;DHT22;10992;48.170;8.596;2024-01-27T08:51:16;-0.20;99.90
21662;DHT22;10992;48.170;8.596;2024-01-27T08:53:44;0.00;99.90
21662;DHT22;10992;48.170;8.596;2024-01-27T08:56:18;-0.10;99.90
21662;DHT22;10992;48.170;8.596;2024-01-27T08:58:45;-0.30;99.90
21662;DHT22;10992;48.170;8.596;2024-01-27T09:01:16;0.00;99.90
21662;DHT22;10992;48.170;8.596;2024-01-27T09:03:43;0.20;99.90
21662;DHT22;10992;48.170;8.596;2024-01-27T09:06:11;0.50;99.90
21662;DHT22;10992;48.170;8.596;2024-01-27T09:08:38;0.70;99.90
21662;DHT22;10992;48.170;8.596;2024-01-27T09:11:05;0.70;99.90
21662;DHT22;10992;48.170;8.596;2024-01-27T09:13:32;0.60;99.90
21662;DHT22;10992;48.170;8.596;2024-01-27T09:16:03;0.60;99.90
21662;DHT22;10992;48.170;8.596;2024-01-27T09:18:30;0.70;99.90
21662;DHT22;10992;48.170;8.596;2024-01-27T09:20:57;0.90;99.90
21662;DHT22;10992;48.170;8.596;2024-01-27T09:23:24;1.00;99.90
21662;DHT22;10992;48.170;8.596;2024-01-27T09:25:51;1.00;99.90
21662;DHT22;10992;48.170;8.596;2024-01-27T09:28:18;1.10;99.90
21662;DHT22;10992;48.170;8.596;2024-01-27T09:30:45;1.50;99.90
21662;DHT22;10992;48.170;8.596;2024-01-27T09:33:12;1.80;99.90
21662;DHT22;10992;48.170;8.596;2024-01-27T09:35:39;2.10;99.90
21662;DHT22;10992;48.170;8.596;2024-01-27T09:38:06;2.30;99.90
21662;DHT22;10992;48.170;8.596;2024-01-27T09:40:39;2.40;99.90
21662;DHT22;10992;48.170;8.596;2024-01-27T09:43:06;2.90;99.90
21662;DHT22;10992;48.170;8.596;2024-01-27T09:45:35;3.20;99.90
21662;DHT22;10992;48.170;8.596;2024-01-27T09:48:03;3.10;99.90
21662;DHT22;10992;48.170;8.596;2024-01-27T09:50:31;3.00;99.90
21662;DHT22;10992;48.170;8.596;2024-01-27T09:52:58;3.40;99.90
21662;DHT22;10992;48.170;8.596;2024-01-27T09:55:25;3.90;99.90
21662;DHT22;10992;48.170;8.596;2024-01-27T09:57:51;4.00;99.90
21662;DHT22;10992;48.170;8.596;2024-01-27T10:00:19;4.60;99.90
21662;DHT22;10992;48.170;8.596;2024-01-27T10:02:46;4.10;99.90
21662;DHT22;10992;48.170;8.596;2024-01-27T10:05:14;3.30;99.90
21662;DHT22;10992;48.170;8.596;2024-01-27T10:07:42;3.70;99.90
21662;DHT22;10992;48.170;8.596;2024-01-27T10:10:10;4.50;99.90
21662;DHT22;10992;48.170;8.596;2024-01-27T10:12:40;5.40;99.90
21662;DHT22;10992;48.170;8.596;2024-01-27T10:15:21;5.30;99.90
21662;DHT22;10992;48.170;8.596;2024-01-27T10:17:49;4.90;99.90
21662;DHT22;10992;48.170;8.596;2024-01-27T10:20:16;4.50;99.90
21662;DHT22;10992;48.170;8.596;2024-01-27T10:22:45;4.30;99.90
21662;DHT22;10992;48.170;8.596;2024-01-27T10:25:12;4.00;99.90
21662;DHT22;10992;48.170;8.596;2024-01-27T10:27:39;4.90;99.90
21662;DHT22;10992;48.170;8.596;2024-01-27T10:30:15;5.70;99.90
21662;DHT22;10992;48.170;8.596;2024-01-27T10:32:43;6.20;99.90
21662;DHT22;10992;48.170;8.596;2024-01-27T10:35:09;7.50;99.90
21662;DHT22;10992;48.170;8.596;2024-01-27T10:37:37;8.00;99.90
21662;DHT22;10992;48.170;8.596;2024-01-27T10:40:07;8.40;99.90
21662;DHT22;10992;48.170;8.596;2024-01-27T10:42:43;8.30;99.90
21662;DHT22;10992;48.170;8.596;2024-01-27T10:45:11;7.40;99.90
21662;DHT22;10992;48.170;8.596;2024-01-27T10:47:39;7.90;99.90
21662;DHT22;10992;48.170;8.596;2024-01-27T10:50:08;7.10;99.90
21662;DHT22;10992;48.170;8.596;2024-01-27T10:52:40;6.50;99.90
21662;DHT22;10992;48.170;8.596;2024-01-27T10:55:10;6.80;99.90
21662;DHT22;10992;48.170;8.596;2024-01-27T10:57:37;7.30;99.90
21662;DHT22;10992;48.170;8.596;2024-01-27T11:00:05;8.40;99.90
21662;DHT22;10992;48.170;8.596;2024-01-27T11:02:34;9.10;99.90
21662;DHT22;10992;48.170;8.596;2024-01-27T11:05:04;9.50;99.90
21662;DHT22;10992;48.170;8.596;2024-01-27T11:07:35;8.80;99.90
21662;DHT22;10992;48.170;8.596;2024-01-27T11:10:02;8.40;99.90
21662;DHT22;10992;48.170;8.596;2024-01-27T11:12:29;8.60;99.90
21662;DHT22;10992;48.170;8.596;2024-01-27T11:14:57;8.80;99.90
21662;DHT22;10992;48.170;8.596;2024-01-27T11:17:27;9.40;99.90
21662;DHT22;10992;48.170;8.596;2024-01-27T11:19:56;9.50;99.90
21662;DHT22;10992;48.170;8.596;2024-01-27T11:22:27;9.70;99.90
21662;DHT22;10992;48.170;8.596;2024-01-27T11:27:42;8.70;99.90
21662;DHT22;10992;48.170;8.596;2024-01-27T11:30:25;8.20;99.90
21662;DHT22;10992;48.170;8.596;2024-01-27T11:32:57;8.30;99.90
21662;DHT22;10992;48.170;8.596;2024-01-27T11:35:24;9.10;99.90
21662;DHT22;10992;48.170;8.596;2024-01-27T11:37:51;9.40;99.90
21662;DHT22;10992;48.170;8.596;2024-01-27T11:40:18;9.00;99.90
21662;DHT22;10992;48.170;8.596;2024-01-27T11:42:55;9.30;99.90
21662;DHT22;10992;48.170;8.596;2024-01-27T11:45:23;9.60;99.90
21662;DHT22;10992;48.170;8.596;2024-01-27T11:47:50;9.40;99.90
21662;DHT22;10992;48.170;8.596;2024-01-27T11:50:18;9.10;99.90
21662;DHT22;10992;48.170;8.596;2024-01-27T11:52:45;7.90;99.90
21662;DHT22;10992;48.170;8.596;2024-01-27T11:55:12;7.10;99.90
21662;DHT22;10992;48.170;8.596;2024-01-27T11:57:39;6.90;99.90
21662;DHT22;10992;48.170;8.596;2024-01-27T12:00:06;7.20;99.90
21662;DHT22;10992;48.170;8.596;2024-01-27T12:02:33;7.80;99.90
21662;DHT22;10992;48.170;8.596;2024-01-27T12:05:01;8.00;99.90
21662;DHT22;10992;48.170;8.596;2024-01-27T12:07:29;8.10;99.90
21662;DHT22;10992;48.170;8.596;2024-01-27T12:09:56;8.20;99.90
21662;DHT22;10992;48.170;8.596;2024-01-27T12:12:23;8.70;99.90
21662;DHT22;10992;48.170;8.596;2024-01-27T12:14:51;8.90;99.90
21662;DHT22;10992;48.170;8.596;2024-01-27T12:17:19;9.10;99.90
21662;DHT22;10992;48.170;8.596;2024-01-27T12:19:51;8.90;99.90
21662;DHT22;10992;48.170;8.596;2024-01-27T12:22:25;8.30;99.90
21662;DHT22;10992;48.170;8.596;2024-01-27T12:25:07;8.00;99.90
21662;DHT22;10992;48.170;8.596;2024-01-27T12:27:35;7.70;99.90
21662;DHT22;10992;48.170;8.596;2024-01-27T12:30:03;8.70;99.90
21662;DHT22;10992;48.170;8.596;2024-01-27T12:32:35;9.30;99.90
21662;DHT22;10992;48.170;8.596;2024-01-27T12:35:05;9.60;99.90
21662;DHT22;10992;48.170;8.596;2024-01-27T12:37:34;10.20;99.90
21662;DHT22;10992;48.170;8.596;2024-01-27T12:40:01;10.40;99.90
21662;DHT22;10992;48.170;8.596;2024-01-27T12:42:28;10.70;99.90
21662;DHT22;10992;48.170;8.596;2024-01-27T12:44:55;10.80;99.90
21662;DHT22;10992;48.170;8.596;2024-01-27T12:47:21;11.30;99.90
21662;DHT22;10992;48.170;8.596;2024-01-27T12:49:48;11.30;99.90
21662;DHT22;10992;48.170;8.596;2024-01-27T12:52:16;11.30;99.90
21662;DHT22;10992;48.170;8.596;2024-01-27T12:54:43;11.10;99.90
21662;DHT22;10992;48.170;8.596;2024-01-27T12:57:11;10.90;99.90
21662;DHT22;10992;48.170;8.596;2024-01-27T12:59:38;10.70;99.90
21662;DHT22;10992;48.170;8.596;2024-01-27T13:02:05;10.70;99.90
21662;DHT22;10992;48.170;8.596;2024-01-27T13:04:32;10.30;99.90
21662;DHT22;10992;48.170;8.596;2024-01-27T13:06:59;10.30;99.90
21662;DHT22;10992;48.170;8.596;2024-01-27T13:09:26;10.40;99.90
21662;DHT22;10992;48.170;8.596;2024-01-27T13:11:54;10.50;99.90
21662;DHT22;10992;48.170;8.596;2024-01-27T13:14:21;10.50;99.90
21662;DHT22;10992;48.170;8.596;2024-01-27T13:16:48;10.40;99.90
21662;DHT22;10992;48.170;8.596;2024-01-27T13:19:15;10.20;99.90
21662;DHT22;10992;48.170;8.596;2024-01-27T13:21:42;10.10;99.90
21662;DHT22;10992;48.170;8.596;2024-01-27T13:24:08;10.50;99.90
21662;DHT22;10992;48.170;8.596;2024-01-27T13:26:36;10.80;99.90
21662;DHT22;10992;48.170;8.596;2024-01-27T13:29:06;10.50;99.90
21662;DHT22;10992;48.170;8.596;2024-01-27T13:31:33;10.70;99.90
21662;DHT22;10992;48.170;8.596;2024-01-27T13:34:00;10.50;99.90
21662;DHT22;10992;48.170;8.596;2024-01-27T13:36:28;10.30;99.90
21662;DHT22;10992;48.170;8.596;2024-01-27T13:38:56;10.80;99.90
21662;DHT22;10992;48.170;8.596;2024-01-27T13:41:23;10.90;99.90
21662;DHT22;10992;48.170;8.596;2024-01-27T13:43:50;11.20;99.90
21662;DHT22;10992;48.170;8.596;2024-01-27T13:46:17;11.80;99.90
21662;DHT22;10992;48.170;8.596;2024-01-27T13:48:43;11.90;99.90
21662;DHT22;10992;48.170;8.596;2024-01-27T13:51:11;11.60;99.90
21662;DHT22;10992;48.170;8.596;2024-01-27T13:53:38;11.30;99.90
21662;DHT22;10992;48.170;8.596;2024-01-27T13:56:13;11.40;99.90
21662;DHT22;10992;48.170;8.596;2024-01-27T13:58:41;11.80;99.90
21662;DHT22;10992;48.170;8.596;2024-01-27T14:01:08;11.80;99.90
21662;DHT22;10992;48.170;8.596;2024-01-27T14:03:35;11.60;99.90
21662;DHT22;10992;48.170;8.596;2024-01-27T14:06:05;11.50;99.90
21662;DHT22;10992;48.170;8.596;2024-01-27T14:08:33;11.70;99.90
21662;DHT22;10992;48.170;8.596;2024-01-27T14:11:00;11.30;99.90
21662;DHT22;10992;48.170;8.596;2024-01-27T14:13:27;11.20;99.90
21662;DHT22;10992;48.170;8.596;2024-01-27T14:15:54;11.40;99.90
21662;DHT22;10992;48.170;8.596;2024-01-27T14:18:20;11.20;99.90
21662;DHT22;10992;48.170;8.596;2024-01-27T14:20:49;11.60;99.90
21662;DHT22;10992;48.170;8.596;2024-01-27T14:23:17;10.90;99.90
21662;DHT22;10992;48.170;8.596;2024-01-27T14:25:44;9.90;99.90
21662;DHT22;10992;48.170;8.596;2024-01-27T14:28:14;9.90;99.90
21662;DHT22;10992;48.170;8.596;2024-01-27T14:30:41;10.40;99.90
21662;DHT22;10992;48.170;8.596;2024-01-27T14:33:08;10.70;99.90
21662;DHT22;10992;48.170;8.596;2024-01-27T14:35:36;10.40;99.90
21662;DHT22;10992;48.170;8.596;2024-01-27T14:38:03;10.60;99.90
21662;DHT22;10992;48.170;8.596;2024-01-27T14:40:31;10.90;99.90
21662;DHT22;10992;48.170;8.596;2024-01-27T14:43:00;10.60;99.90
21662;DHT22;10992;48.170;8.596;2024-01-27T14:45:29;9.90;99.90
21662;DHT22;10992;48.170;8.596;2024-01-27T14:47:56;9.60;99.90
21662;DHT22;10992;48.170;8.596;2024-01-27T14:50:26;9.40;99.90
21662;DHT22;10992;48.170;8.596;2024-01-27T14:52:53;9.50;99.90
21662;DHT22;10992;48.170;8.596;2024-01-27T14:55:20;9.70;99.90
21662;DHT22;10992;48.170;8.596;2024-01-27T14:57:47;9.70;99.90
21662;DHT22;10992;48.170;8.596;2024-01-27T15:00:14;9.50;99.90
21662;DHT22;10992;48.170;8.596;2024-01-27T15:02:42;9.50;99.90
21662;DHT22;10992;48.170;8.596;2024-01-27T15:05:12;9.50;99.90
21662;DHT22;10992;48.170;8.596;2024-01-27T15:07:39;9.20;99.90
21662;DHT22;10992;48.170;8.596;2024-01-27T15:10:06;9.00;99.90
21662;DHT22;10992;48.170;8.596;2024-01-27T15:12:36;8.70;99.90
21662;DHT22;10992;48.170;8.596;2024-01-27T15:15:04;8.20;99.90
21662;DHT22;10992;48.170;8.596;2024-01-27T15:17:31;7.40;99.90
21662;DHT22;10992;48.170;8.596;2024-01-27T15:19:58;6.90;99.90
21662;DHT22;10992;48.170;8.596;2024-01-27T15:22:25;6.40;99.90
21662;DHT22;10992;48.170;8.596;2024-01-27T15:24:52;6.00;99.90
21662;DHT22;10992;48.170;8.596;2024-01-27T15:27:20;5.80;99.90
21662;DHT22;10992;48.170;8.596;2024-01-27T15:29:47;5.40;99.90
21662;DHT22;10992;48.170;8.596;2024-01-27T15:32:13;5.20;99.90
21662;DHT22;10992;48.170;8.596;2024-01-27T15:34:44;5.00;99.90
21662;DHT22;10992;48.170;8.596;2024-01-27T15:37:11;4.80;99.90
21662;DHT22;10992;48.170;8.596;2024-01-27T15:39:38;4.50;99.90
21662;DHT22;10992;48.170;8.596;2024-01-27T15:42:05;4.40;99.90